Latest Weather Observations for Port Macquarie Airport

IDN60801

Issued at 4:05 am EDT Thursday 27 November 2014 (issued every 30 minutes, with the page automatically refreshed every 10 minutes)

About weather observations | Map of weather stations | Latest weather observations for NSW | Other Formats
Station Details ID: 060139 Name: PORT MACQUARIE AIRPORT AWS Lat: -31.43 Lon: 152.87 Height: 4.2 m
Data from the previous 72 hours. | See also: Recent months at Port Macquarie Airport
Date/Time
EDT
Temp
°C
App
Temp
°C
Dew
Point
Rel
Hum
%
Delta-T
°C
Wind Press
QNH
hPa
Press
MSL
hPa
Rain
since 9 am
mm
Dir
 
Spd
km/h
Gust
km/h
Spd
kts
Gust
kts
27/04:00am 20.3 23.2 19.1 93 0.8 SSW 2 6 1 3 1014.6 1014.6 0.0
27/03:38am 20.3 23.6 19.1 93 0.8 CALM 0 0 0 0 1014.7 1014.7 0.0
27/03:37am 20.3 23.6 19.1 93 0.8 CALM 0 0 0 0 1014.7 - 0.0
27/03:30am 20.2 23.5 19.2 94 0.6 CALM 0 0 0 0 1014.7 1014.7 0.0
27/03:16am 20.3 23.7 19.3 94 0.6 CALM 0 0 0 0 1014.8 1014.8 0.0
27/03:15am 20.3 23.7 19.3 94 0.6 CALM 0 0 0 0 1014.8 - 0.0
27/03:00am 20.2 23.5 19.2 94 0.6 CALM 0 0 0 0 1014.9 1014.9 0.0
27/02:55am 20.1 23.4 19.1 94 0.6 CALM 0 0 0 0 1015.0 1015.0 0.0
27/02:54am 20.2 23.6 19.4 95 0.5 CALM 0 0 0 0 1015.0 1015.0 0.0
27/02:53am 20.2 23.6 19.4 95 0.5 CALM 0 0 0 0 1015.0 - 0.0
27/02:30am 20.1 23.1 19.3 95 0.5 SSW 2 6 1 3 1015.0 1015.0 0.0
27/02:05am 19.9 22.1 19.1 95 0.5 S 6 7 3 4 1015.4 1015.4 0.0
27/02:04am 19.9 21.9 19.1 95 0.5 S 7 9 4 5 1015.4 - 0.0
27/02:00am 19.9 21.9 19.1 95 0.5 S 7 9 4 5 1015.3 1015.3 0.0
27/01:37am 19.8 23.0 18.8 94 0.6 CALM 0 0 0 0 1015.4 1015.4 0.0
27/01:36am 19.9 23.1 18.9 94 0.6 CALM 0 0 0 0 1015.4 - 0.0
27/01:30am 19.9 23.1 18.9 94 0.6 CALM 0 0 0 0 1015.4 1015.4 0.0
27/01:27am 20.0 23.3 19.0 94 0.6 CALM 0 0 0 0 1015.5 1015.5 0.0
27/01:26am 20.0 23.3 19.0 94 0.6 CALM 0 0 0 0 1015.5 - 0.0
27/01:00am 20.0 23.3 19.0 94 0.6 CALM 0 0 0 0 1015.7 1015.7 0.0
27/12:30am 19.9 23.1 18.9 94 0.6 CALM 0 0 0 0 1016.2 1016.2 0.0
27/12:14am 19.7 21.7 18.7 94 0.6 NNW 6 6 3 3 1016.4 1016.4 0.0
27/12:13am 19.7 21.7 18.7 94 0.6 NNW 6 7 3 4 1016.4 - 0.0
27/12:00am 19.9 22.0 18.9 94 0.6 NNW 6 6 3 3 1016.5 1016.5 0.0
 
Date/Time
EDT
Temp
°C
App
Temp
°C
Dew
Point
Rel
Hum
%
Delta-T
°C
Wind Press
QNH
hPa
Press
MSL
hPa
Rain
since 9 am
mm
Dir
 
Spd
km/h
Gust
km/h
Spd
kts
Gust
kts
26/11:40pm 20.0 22.0 19.2 95 0.5 NW 7 9 4 5 1016.6 1016.6 0.0
26/11:39pm 19.9 21.9 19.1 95 0.5 NW 7 9 4 5 1016.7 - 0.0
26/11:30pm 19.8 21.3 19.0 95 0.5 NW 9 9 5 5 1016.8 1016.8 0.0
26/11:00pm 19.9 22.3 18.7 93 0.7 NNW 4 9 2 5 1016.7 1016.7 0.0
26/10:30pm 20.6 22.9 19.4 93 0.8 SW 6 6 3 3 1016.9 1016.9 0.0
26/10:00pm 21.0 24.6 19.8 93 0.8 CALM 0 0 0 0 1017.1 1017.1 0.0
26/09:30pm 21.2 24.8 19.8 92 0.9 CALM 0 0 0 0 1017.3 1017.3 0.0
26/09:00pm 21.2 24.8 19.8 92 0.9 CALM 0 0 0 0 1017.5 1017.5 0.0
26/08:30pm 21.5 25.2 20.0 91 1.0 CALM 0 0 0 0 1017.2 1017.2 0.0
26/08:00pm 21.3 25.0 19.9 92 0.9 CALM 0 6 0 3 1017.3 1017.3 0.0
26/07:30pm 21.3 23.6 19.8 91 1.0 N 7 9 4 5 1017.1 1017.1 0.0
26/07:00pm 21.9 22.5 19.5 86 1.5 NNE 15 19 8 10 1016.7 1016.7 0.0
26/06:30pm 22.2 22.7 19.2 83 1.9 NE 15 24 8 13 1016.3 1016.3 0.0
26/06:00pm 22.7 23.3 18.7 78 2.5 NE 13 17 7 9 1016.1 1016.1 0.0
26/05:30pm 23.0 23.6 18.5 76 2.8 NE 13 19 7 10 1016.2 1016.2 0.0
26/05:00pm 22.9 22.6 18.2 75 2.9 NE 17 20 9 11 1016.1 1016.1 0.0
26/04:30pm 22.9 22.9 18.0 74 3.1 NE 15 22 8 12 1016.2 1016.2 0.0
26/04:00pm 23.0 22.6 18.1 74 3.1 ENE 17 22 9 12 1016.4 1016.4 0.0
26/03:30pm 23.4 22.6 18.1 72 3.3 ENE 19 26 10 14 1016.5 1016.5 0.0
26/03:00pm 23.8 23.5 18.2 71 3.5 ENE 17 24 9 13 1017.0 1017.0 0.0
26/02:30pm 23.7 22.9 17.9 70 3.6 ENE 19 26 10 14 1017.1 1017.1 0.0
26/02:00pm 23.3 23.0 17.3 69 3.7 ENE 15 22 8 12 1017.7 1017.7 0.0
26/01:30pm 23.2 22.9 17.4 70 3.6 E 15 19 8 10 1017.8 1017.8 0.0
26/01:00pm 22.8 22.0 17.0 70 3.6 ENE 17 20 9 11 1018.2 1018.2 0.0
26/12:30pm 23.2 22.4 17.2 69 3.7 E 17 24 9 13 1018.4 1018.4 0.0
26/12:00pm 23.0 22.2 17.2 70 3.6 ENE 17 24 9 13 1018.7 1018.7 0.0
26/11:30am 23.5 22.3 17.5 69 3.7 E 20 24 11 13 1018.7 1018.7 0.0
26/11:00am 23.4 23.0 18.1 72 3.3 E 17 20 9 11 1019.0 1019.0 0.0
26/10:30am 22.8 22.1 17.3 71 3.4 E 17 20 9 11 1019.0 1019.0 0.0
26/10:00am 22.7 22.5 17.6 73 3.2 E 15 20 8 11 1018.9 1018.9 0.0
26/09:30am 22.3 22.3 17.2 73 3.1 ENE 13 17 7 9 1019.0 1019.0 0.0
26/09:00am 22.4 22.7 17.8 75 2.9 E 13 17 7 9 1019.0 1019.0 2.0
26/08:30am 22.1 22.6 17.5 75 2.8 ENE 11 17 6 9 1019.2 1019.2 2.0
26/08:00am 20.6 23.4 18.0 85 1.6 CALM 0 2 0 1 1019.3 1019.3 2.0
26/07:30am 20.4 22.5 18.9 91 0.9 WNW 6 7 3 4 1019.1 1019.1 2.0
26/07:00am 20.1 22.0 18.6 91 0.9 NW 6 7 3 4 1018.6 1018.6 2.0
26/06:30am 19.9 21.6 18.4 91 0.9 WNW 7 9 4 5 1018.6 1018.6 2.0
26/06:00am 20.0 22.9 18.3 90 1.1 CALM 0 0 0 0 1018.1 1018.1 2.0
26/05:30am 19.9 21.7 18.2 90 1.1 W 6 7 3 4 1018.5 1018.5 2.0
26/05:00am 20.0 22.9 18.3 90 1.1 CALM 0 0 0 0 1018.1 1018.1 2.0
26/04:30am 20.0 21.5 18.1 89 1.2 W 7 9 4 5 1018.0 1018.0 2.0
26/04:00am 19.9 22.0 18.2 90 1.1 W 4 9 2 5 1018.0 1018.0 2.0
26/03:30am 19.8 22.6 17.9 89 1.2 CALM 0 6 0 3 1017.8 1017.8 2.0
26/03:00am 20.0 22.8 18.0 88 1.2 CALM 0 0 0 0 1018.1 1018.1 2.0
26/02:30am 20.5 22.3 17.3 82 2.0 SE 4 9 2 5 1018.0 1018.0 2.0
26/02:00am 20.9 22.4 17.5 81 2.1 SE 6 7 3 4 1018.6 1018.6 2.0
26/01:30am 21.0 22.3 17.0 78 2.4 E 6 9 3 5 1019.2 1019.2 2.0
26/01:00am 20.9 21.5 16.9 78 2.4 ESE 9 11 5 6 1019.2 1019.2 2.0
26/12:30am 20.9 21.6 17.1 79 2.3 ESE 9 13 5 7 1019.5 1019.5 2.0
26/12:00am 20.5 22.2 18.1 86 1.5 SSW 6 7 3 4 1019.7 1019.7 2.0
 
Date/Time
EDT
Temp
°C
App
Temp
°C
Dew
Point
Rel
Hum
%
Delta-T
°C
Wind Press
QNH
hPa
Press
MSL
hPa
Rain
since 9 am
mm
Dir
 
Spd
km/h
Gust
km/h
Spd
kts
Gust
kts
25/11:30pm 20.6 22.5 17.6 83 1.8 SSE 4 7 2 4 1019.9 1019.9 2.0
25/11:00pm 20.7 22.0 17.5 82 2.0 S 7 9 4 5 1019.8 1019.8 2.0
25/10:30pm 20.9 22.4 17.7 82 2.0 S 6 9 3 5 1019.6 1019.6 2.0
25/10:00pm 20.9 22.2 17.5 81 2.1 S 7 11 4 6 1019.5 1019.5 2.0
25/09:30pm 21.0 21.6 17.6 81 2.1 S 11 15 6 8 1019.2 1019.2 2.0
25/09:00pm 21.1 21.2 17.5 80 2.2 SSE 13 17 7 9 1019.2 1019.2 2.0
25/08:30pm 21.3 22.3 17.7 80 2.2 S 9 13 5 7 1018.8 1018.8 2.0
25/08:00pm 21.3 21.4 17.5 79 2.3 SSE 13 19 7 10 1018.4 1018.4 2.0
25/07:30pm 21.4 21.7 18.0 81 2.1 S 13 17 7 9 1017.9 1017.9 2.0
25/07:00pm 21.6 22.0 18.2 81 2.1 S 13 20 7 11 1017.7 1017.7 2.0
25/06:30pm 21.8 21.8 18.2 80 2.2 S 15 24 8 13 1017.1 1017.1 2.0
25/06:00pm 22.1 21.8 18.3 79 2.4 S 17 26 9 14 1016.7 1016.7 2.0
25/05:30pm 22.3 22.1 18.5 79 2.4 S 17 26 9 14 1015.8 1015.8 2.0
25/05:00pm 22.4 22.0 18.8 80 2.3 S 19 26 10 14 1015.5 1015.5 2.0
25/04:30pm 22.8 22.5 19.6 82 2.0 S 20 32 11 17 1014.9 1014.9 2.0
25/04:00pm 23.2 22.7 20.0 82 2.1 S 22 32 12 17 1014.8 1014.8 2.0
25/03:30pm 24.8 25.8 20.3 76 2.9 SSE 15 22 8 12 1014.4 1014.4 2.0
25/03:00pm 24.4 25.2 20.7 80 2.4 SE 17 24 9 13 1013.9 1013.9 2.0
25/02:30pm 24.5 26.3 21.2 82 2.2 SE 13 17 7 9 1014.0 1014.0 2.0
25/02:00pm 24.4 25.1 21.5 84 1.9 S 20 28 11 15 1013.8 1013.8 2.0
25/01:30pm 25.1 29.7 22.4 85 1.8 N 2 7 1 4 1013.7 1013.7 2.0
25/01:00pm 24.3 27.3 22.0 87 1.5 S 9 13 5 7 1013.7 1013.7 2.0
25/12:30pm 24.9 28.5 22.0 84 1.9 SE 6 7 3 4 1014.1 1014.1 0.8
25/12:00pm 25.1 27.4 21.4 80 2.4 SSE 11 13 6 7 1014.0 1014.0 0.2
25/11:30am 24.5 25.2 21.2 82 2.2 S 19 24 10 13 1013.9 1013.9 0.2
25/11:00am 27.0 29.4 21.5 72 3.7 SSE 11 17 6 9 1013.3 1013.3 0.2
25/10:30am 28.3 30.0 20.1 61 5.4 ESE 11 15 6 8 1012.9 1012.9 0.0
25/10:00am 29.8 32.0 21.2 60 5.7 SE 11 15 6 8 1013.0 1013.0 0.0
25/09:30am 28.5 31.0 20.2 60 5.5 SSE 7 13 4 7 1012.6 1012.6 0.0
25/09:00am 27.9 31.5 22.4 72 3.7 SW 7 11 4 6 1012.6 1012.6 14.4
25/08:30am 26.3 29.6 21.9 77 2.9 WNW 7 11 4 6 1012.7 1012.7 14.4
25/08:00am 24.8 27.2 21.5 82 2.2 WNW 11 13 6 7 1012.5 1012.5 14.4
25/07:30am 23.7 27.0 21.8 89 1.3 WNW 7 11 4 6 1012.0 1012.0 14.4
25/07:00am 22.8 26.1 21.4 92 0.9 NW 6 7 3 4 1011.7 1011.7 14.4
25/06:30am 22.2 26.6 21.4 95 0.5 CALM 0 0 0 0 1011.3 1011.3 14.4
25/06:00am 21.7 24.8 21.0 96 0.5 W 6 9 3 5 1011.1 1011.1 14.4
25/05:30am 21.4 24.1 20.7 96 0.5 NW 7 9 4 5 1010.7 1010.7 14.4
25/05:00am 21.5 25.6 20.8 96 0.5 CALM 0 0 0 0 1010.4 1010.4 14.4
25/04:30am 21.6 24.4 20.9 96 0.5 S 7 9 4 5 1010.5 1010.5 14.4
25/04:00am 21.8 24.9 21.1 96 0.5 W 6 11 3 6 1010.4 1010.4 14.4
25/03:30am 21.5 24.3 20.8 96 0.5 W 7 11 4 6 1010.4 1010.4 14.4
25/03:00am 21.1 24.3 20.4 96 0.5 WNW 4 9 2 5 1010.4 1010.4 14.4
25/02:30am 21.3 24.9 20.6 96 0.5 NW 2 7 1 4 1010.4 1010.4 14.4
25/02:00am 21.6 24.6 20.8 95 0.5 NNW 6 7 3 4 1010.9 1010.9 14.4
25/01:30am 21.8 25.1 20.8 94 0.6 N 4 7 2 4 1010.9 1010.9 14.4
25/01:00am 21.9 24.7 20.9 94 0.7 NE 7 15 4 8 1011.1 1011.1 14.4
25/12:30am 22.1 25.1 21.3 95 0.5 N 7 11 4 6 1011.6 1011.6 14.4
25/12:00am 22.2 26.0 21.0 93 0.8 SSE 2 7 1 4 1011.1 1011.1 14.4
 
Date/Time
EDT
Temp
°C
App
Temp
°C
Dew
Point
Rel
Hum
%
Delta-T
°C
Wind Press
QNH
hPa
Press
MSL
hPa
Rain
since 9 am
mm
Dir
 
Spd
km/h
Gust
km/h
Spd
kts
Gust
kts
24/11:53pm 21.9 24.7 20.5 92 0.9 ESE 6 15 3 8 1010.8 1010.8 14.4
24/11:51pm 21.9 24.6 20.7 93 0.8 ESE 7 19 4 10 1010.8 - 14.4
24/11:46pm 21.8 22.6 20.6 93 0.8 ESE 17 28 9 15 1010.8 1010.8 14.4
24/11:34pm 22.4 22.2 21.2 93 0.8 E 24 30 13 16 1011.2 1011.2 13.6
24/11:33pm 22.5 21.9 21.3 93 0.8 E 26 30 14 16 1011.3 - 13.0
24/11:30pm 22.6 22.7 21.2 92 0.9 NE 22 26 12 14 1011.8 1011.8 10.0
24/11:23pm 23.0 23.9 20.9 88 1.4 NNW 17 26 9 14 1013.4 1013.4 1.8
24/11:18pm 22.8 23.0 20.5 87 1.5 N 20 26 11 14 1013.4 1013.4 0.0
24/11:00pm 23.1 25.8 20.2 84 1.9 SE 6 9 3 5 1011.3 1011.3 0.0
24/10:30pm 23.0 25.1 20.1 84 1.9 SSW 9 13 5 7 1010.9 1010.9 0.0
24/10:00pm 22.9 25.7 19.7 82 2.1 ESE 4 7 2 4 1011.5 1011.5 0.0
24/09:30pm 23.1 25.3 19.5 80 2.3 ESE 7 9 4 5 1010.6 1010.6 0.0
24/09:00pm 24.2 24.2 19.7 76 2.9 E 19 22 10 12 1009.3 1009.3 0.0
24/08:30pm 25.2 27.2 20.0 73 3.4 NE 9 13 5 7 1009.4 1009.4 0.0
24/08:00pm 25.4 25.2 19.8 71 3.6 NNE 20 26 11 14 1009.4 1009.4 0.0
24/07:30pm 25.6 26.4 19.9 70 3.7 NNE 15 20 8 11 1008.8 1008.8 0.0
24/07:00pm 26.0 26.8 19.9 69 4.0 NNE 15 24 8 13 1008.2 1008.2 0.0
24/06:30pm 26.6 26.9 19.7 66 4.5 N 17 26 9 14 1008.2 1008.2 0.0
24/06:00pm 26.9 29.4 20.3 67 4.3 N 7 13 4 7 1007.9 1007.9 0.0
24/05:30pm 26.7 28.8 21.0 71 3.8 NNE 11 17 6 9 1007.2 1007.2 0.0
24/05:00pm 27.3 29.0 20.9 68 4.2 NE 13 17 7 9 1007.2 1007.2 0.0
24/04:30pm 28.4 30.3 21.4 66 4.7 NE 13 17 7 9 1007.4 1007.4 0.0
24/04:00pm 28.9 29.5 21.4 64 5.0 NE 20 26 11 14 1007.3 1007.3 0.0
24/03:30pm 30.0 31.3 21.7 61 5.6 NE 17 26 9 14 1007.8 1007.8 0.0
24/03:00pm 32.1 34.0 22.8 58 6.4 E 17 20 9 11 1008.1 1008.1 0.0
24/02:30pm 30.1 31.6 22.0 62 5.5 ENE 17 22 9 12 1009.0 1009.0 0.0
24/02:00pm 29.3 31.1 21.8 64 5.1 E 15 17 8 9 1009.6 1009.6 0.0
24/01:30pm 30.6 31.6 21.7 59 6.0 NE 19 22 10 12 1009.9 1009.9 0.0
24/01:00pm 28.5 29.7 21.5 66 4.7 E 17 20 9 11 1010.6 1010.6 0.0
24/12:30pm 29.6 30.6 21.0 60 5.7 ENE 17 22 9 12 1011.1 1011.1 0.0
24/12:00pm 30.8 31.9 22.4 61 5.7 ENE 20 26 11 14 1011.5 1011.5 0.0
24/11:30am 30.0 30.1 21.9 62 5.5 ENE 24 30 13 16 1011.8 1011.8 0.0
24/11:00am 29.9 31.1 22.1 63 5.3 ENE 19 24 10 13 1012.3 1012.3 0.0
24/10:30am 28.6 30.3 21.6 66 4.7 E 15 20 8 11 1012.6 1012.6 0.0
24/10:00am 28.7 30.8 21.7 66 4.7 E 13 17 7 9 1012.9 1012.9 0.0
24/09:30am 27.9 29.8 21.4 67 4.3 E 13 15 7 8 1013.0 1013.0 0.0
24/09:00am 27.6 29.6 21.6 70 4.0 NE 13 19 7 10 1013.2 1013.2 0.0
24/08:30am 26.0 28.2 21.2 75 3.2 NNE 11 15 6 8 1013.5 1013.5 0.0
24/08:00am 24.2 25.4 20.7 81 2.3 N 15 20 8 11 1013.5 1013.5 0.0
24/07:30am 22.1 23.6 20.6 91 1.0 N 13 15 7 8 1013.6 1013.6 0.0
24/07:00am 21.6 22.7 20.4 93 0.8 NNE 15 19 8 10 1013.6 1013.6 0.0
24/06:30am 21.3 22.7 20.3 94 0.6 NNE 13 17 7 9 1013.2 1013.2 0.0
24/06:00am 21.0 23.1 20.2 95 0.5 N 9 15 5 8 1013.2 1013.2 0.0
24/05:30am 20.8 23.1 19.8 94 0.6 NNE 7 11 4 6 1012.6 1012.6 0.0
24/05:00am 20.9 22.4 19.7 93 0.8 N 11 13 6 7 1012.3 1012.3 0.0
24/04:30am 21.3 22.5 19.8 91 1.0 N 13 17 7 9 1012.2 1012.2 0.0

Other Formats:

Comma delimited format used in spreadsheet applications
http://www.bom.gov.au/fwo/IDN60801/IDN60801.94786.axf

JavaScript Object Notation format (JSON) in row-major order
http://www.bom.gov.au/fwo/IDN60801/IDN60801.94786.json